ROMMA est une association bénévole à but non lucratif. Votre soutien est indispensable : ADHERER à ROMMA ou FAIRE un DON

Saint-Martin-d'Hères - (38, Isère)

Vallée du Grésivaudan (220 m)   Longitude: 05° 45' 05" E   Latitude: 45° 10' 02" N Station partenaire n°4
 

Détail journalier du     <<     >>

Température Precipitation Humidité Pression Vent Dir Rafale Dir. rafale Ensol.
Heure (°C) (mm) (%) (hPa) (km/h) (km/h) (min)
01:00 11.7091102600---0
02:00 11.0093102600---0
03:00 10.9094102500---0
04:00 11.2094102500---0
05:00 11.7091102500---0
06:00 10.9092102500---0
07:00 11.3092102500---0
08:00 11.6090102500---0
09:00 11.6090102500---0
10:00 12.6085102500---0
11:00 13.408210241NNO11NO0
12:00 14.607710231NO11NNO0
13:00 15.907310236NO16NNO0
14:00 17.106710225NO16NO20
15:00 17.806510212NO18ONO30
16:00 18.806210202NO15NO60
17:00 18.906110201NO15NO60
18:00 16.70671019010O10
19:00 14.207410202SSO15SSO0
20:00 12.7080102005S0
21:00 11.80831020010S0
22:00 11.4084102008S0
23:00 10.7087102100---0
minuit 9.6089102100---0

Graphique du 21-10-2018

 

Serveur OMMA